Time;durP1;ratioP1;P1;durP2;ratioP2;P2;SDS_P1;SDS_P2;PMS_P1;PMS_P2;Temp;Humidity;BMP_temperature;BMP_pressure;BME280_temperature;BME280_humidity;BME280_pressure;Samples;Min_cycle;Max_cycle;Signal;HPM_P1;HPM_P2
2023/07/14 00:01:48;;;;;;;4.63;2.50;;;17.80;99.90;;;;;;5049300;28;20036;-68
2023/07/14 00:04:17;;;;;;;4.00;2.67;;;17.70;99.90;;;;;;5050449;28;20041;-69
2023/07/14 00:06:45;;;;;;;4.15;2.67;;;17.70;99.90;;;;;;5050429;28;20505;-70
2023/07/14 00:09:30;;;;;;;4.55;2.58;;;17.70;99.90;;;;;;5050364;28;20112;-69
2023/07/14 00:11:57;;;;;;;7.50;2.92;;;17.70;99.90;;;;;;5049846;28;20494;-69
2023/07/14 00:14:23;;;;;;;3.83;2.47;;;17.60;99.90;;;;;;5051016;28;20131;-69
2023/07/14 00:16:48;;;;;;;7.35;2.60;;;17.60;99.90;;;;;;5050363;28;20498;-69
2023/07/14 00:19:17;;;;;;;6.35;2.70;;;17.50;99.90;;;;;;5050410;28;20061;-69
2023/07/14 00:21:44;;;;;;;3.95;2.35;;;17.50;99.90;;;;;;5050268;28;20037;-68
2023/07/14 00:24:16;;;;;;;3.77;2.53;;;17.40;99.90;;;;;;5050000;28;20060;-68
2023/07/14 00:26:46;;;;;;;6.40;2.72;;;17.40;99.90;;;;;;5050070;28;20517;-69
2023/07/14 00:29:34;;;;;;;3.70;2.58;;;17.30;99.90;;;;;;5050517;28;20052;-68
2023/07/14 00:32:02;;;;;;;4.47;2.58;;;17.40;99.90;;;;;;5050175;28;20122;-68
2023/07/14 00:34:28;;;;;;;5.28;2.92;;;17.40;99.90;;;;;;5049835;28;20049;-69
2023/07/14 00:36:54;;;;;;;4.38;2.33;;;17.30;99.90;;;;;;5050109;28;20032;-69
2023/07/14 00:39:20;;;;;;;5.38;2.92;;;17.30;99.90;;;;;;5050014;28;20040;-69
2023/07/14 00:41:46;;;;;;;5.25;2.60;;;17.30;99.90;;;;;;5050195;28;20043;-69
2023/07/14 00:44:14;;;;;;;6.43;3.00;;;17.30;99.90;;;;;;5050275;28;20104;-69
2023/07/14 00:46:40;;;;;;;4.47;3.00;;;17.20;99.90;;;;;;5049872;28;20029;-68
2023/07/14 00:49:33;;;;;;;4.88;3.20;;;17.20;99.90;;;;;;5082338;28;20094;-69
2023/07/14 00:52:12;;;;;;;7.95;3.33;;;17.20;99.90;;;;;;5048385;28;20044;-69
2023/07/14 00:54:41;;;;;;;9.93;3.47;;;17.10;99.90;;;;;;5049865;28;20465;-68
2023/07/14 00:57:15;;;;;;;8.40;3.08;;;17.10;99.90;;;;;;5049718;28;20029;-69
2023/07/14 00:59:41;;;;;;;6.95;3.33;;;17.10;99.90;;;;;;5049861;28;20470;-68
2023/07/14 01:02:22;;;;;;;6.10;2.50;;;17.00;99.90;;;;;;5050902;28;20096;-68
2023/07/14 01:05:03;;;;;;;6.38;2.92;;;17.00;99.90;;;;;;5050228;28;20055;-68
2023/07/14 01:07:37;;;;;;;7.80;3.45;;;16.90;99.90;;;;;;5049603;28;20151;-68
2023/07/14 01:10:04;;;;;;;4.63;2.88;;;16.90;99.90;;;;;;5049720;28;20482;-69
2023/07/14 01:12:34;;;;;;;6.03;3.10;;;16.90;99.90;;;;;;5049704;28;20033;-69
2023/07/14 01:15:03;;;;;;;4.18;2.65;;;16.90;99.90;;;;;;5049601;28;20099;-69
2023/07/14 01:17:29;;;;;;;5.35;2.28;;;16.90;99.90;;;;;;5050024;28;20032;-69
2023/07/14 01:19:59;;;;;;;4.05;2.40;;;16.80;99.90;;;;;;5049669;28;20025;-69
2023/07/14 01:22:43;;;;;;;6.25;3.13;;;16.80;99.90;;;;;;5049953;28;20068;-69
2023/07/14 01:25:23;;;;;;;3.70;2.80;;;16.70;99.90;;;;;;5053319;28;20026;-68
2023/07/14 01:27:49;;;;;;;6.95;3.17;;;16.80;99.90;;;;;;5053178;28;20029;-68
2023/07/14 01:30:16;;;;;;;5.05;2.90;;;16.70;99.90;;;;;;5053206;28;20469;-68
2023/07/14 01:32:46;;;;;;;8.37;2.97;;;16.70;99.90;;;;;;5053097;28;20029;-70
2023/07/14 01:35:13;;;;;;;7.35;3.08;;;16.60;99.90;;;;;;5055723;28;20293;-68
2023/07/14 01:37:39;;;;;;;5.70;2.92;;;16.60;99.90;;;;;;5072997;28;20021;-69
2023/07/14 01:40:11;;;;;;;8.98;3.00;;;16.60;99.90;;;;;;5073076;28;20033;-68
2023/07/14 01:42:40;;;;;;;5.95;3.08;;;16.60;99.90;;;;;;5072968;28;20020;-69
2023/07/14 01:45:14;;;;;;;9.45;2.88;;;16.60;99.90;;;;;;5072914;28;20028;-68
2023/07/14 01:47:43;;;;;;;4.32;3.35;;;16.50;99.90;;;;;;5072843;28;20115;-68
2023/07/14 01:50:20;;;;;;;5.32;2.90;;;16.50;99.90;;;;;;5073273;28;20025;-69
2023/07/14 01:52:50;;;;;;;5.70;2.88;;;16.50;99.90;;;;;;5073132;28;20037;-68
2023/07/14 01:55:19;;;;;;;6.32;2.60;;;16.50;99.90;;;;;;5072756;28;20035;-68
2023/07/14 01:57:47;;;;;;;7.90;3.00;;;16.50;99.90;;;;;;5072650;28;20025;-68
2023/07/14 02:00:13;;;;;;;9.18;3.33;;;16.50;99.90;;;;;;5072810;28;20025;-68
2023/07/14 02:02:40;;;;;;;5.45;2.78;;;16.50;99.90;;;;;;5072638;28;20020;-69
2023/07/14 02:05:26;;;;;;;4.97;2.70;;;16.50;99.90;;;;;;5073150;28;20067;-69
2023/07/14 02:07:54;;;;;;;4.53;2.47;;;16.60;99.90;;;;;;5071534;28;20029;-68
2023/07/14 02:10:20;;;;;;;;;;;16.60;99.90;;;;;;5072965;28;20039;-69
2023/07/14 02:12:49;;;;;;;6.70;3.15;;;16.50;99.90;;;;;;5072804;28;19917;-68
2023/07/14 02:15:23;;;;;;;4.68;2.78;;;16.50;99.90;;;;;;5072586;28;20364;-69
2023/07/14 02:17:50;;;;;;;3.50;2.72;;;16.40;99.90;;;;;;5072493;28;20029;-68
2023/07/14 02:20:23;;;;;;;11.95;3.25;;;16.50;99.90;;;;;;5072965;28;20108;-69
2023/07/14 02:22:51;;;;;;;3.92;3.20;;;16.30;99.90;;;;;;5071438;28;20024;-68
2023/07/14 02:25:19;;;;;;;6.80;3.22;;;16.20;99.90;;;;;;5072358;28;20404;-68
2023/07/14 02:27:45;;;;;;;4.95;2.60;;;16.30;99.90;;;;;;5071193;28;20024;-69
2023/07/14 02:30:17;;;;;;;5.65;3.15;;;16.30;99.90;;;;;;5072552;28;20032;-69
2023/07/14 02:33:09;;;;;;;5.78;2.95;;;16.30;99.90;;;;;;5072102;28;20024;-69
2023/07/14 02:36:20;;;;;;;6.28;3.17;;;16.20;99.90;;;;;;5066376;28;20063;-68
2023/07/14 02:38:45;;;;;;;5.32;3.53;;;16.20;99.90;;;;;;5048721;28;20082;-68
2023/07/14 02:41:18;;;;;;;6.18;3.55;;;16.20;99.90;;;;;;5072362;28;20029;-69
2023/07/14 02:43:49;;;;;;;5.40;3.00;;;16.20;99.90;;;;;;5071893;28;20047;-69
2023/07/14 02:46:20;;;;;;;5.25;2.90;;;16.10;99.90;;;;;;5071967;28;20095;-69
2023/07/14 02:48:50;;;;;;;7.25;3.40;;;16.20;99.90;;;;;;5071852;28;20504;-69
2023/07/14 02:51:15;;;;;;;5.25;3.70;;;16.10;99.90;;;;;;5070634;28;20060;-68
2023/07/14 02:53:41;;;;;;;7.25;3.65;;;16.10;99.90;;;;;;5071687;28;20056;-68
2023/07/14 02:56:07;;;;;;;10.75;3.35;;;16.10;99.90;;;;;;5072098;28;20030;-69
2023/07/14 02:58:34;;;;;;;4.95;3.35;;;16.10;99.90;;;;;;5071910;28;20047;-68
2023/07/14 03:01:01;;;;;;;5.28;2.95;;;16.10;99.90;;;;;;5071681;28;20021;-68
2023/07/14 03:03:27;;;;;;;5.65;3.30;;;16.10;99.90;;;;;;5071491;28;20056;-68
2023/07/14 03:05:53;;;;;;;5.50;3.55;;;16.10;99.90;;;;;;5071417;28;20090;-68
2023/07/14 03:08:20;;;;;;;8.10;3.53;;;16.10;99.90;;;;;;5072077;28;20028;-69
2023/07/14 03:10:54;;;;;;;7.90;3.35;;;16.20;99.90;;;;;;5071334;28;20501;-69
2023/07/14 03:13:19;;;;;;;9.65;4.32;;;16.10;99.90;;;;;;5071213;28;20467;-69
2023/07/14 03:15:45;;;;;;;7.63;4.20;;;16.20;99.90;;;;;;5071497;28;20051;-69
2023/07/14 03:18:11;;;;;;;12.48;3.88;;;16.20;99.90;;;;;;5071512;28;20432;-69
2023/07/14 03:20:40;;;;;;;5.28;3.95;;;16.20;99.90;;;;;;5071112;28;20395;-68
2023/07/14 03:23:05;;;;;;;4.82;3.50;;;16.30;99.90;;;;;;5071439;28;20025;-69
2023/07/14 03:25:35;;;;;;;9.35;4.15;;;16.30;99.90;;;;;;5071003;28;20089;-70
2023/07/14 03:28:03;;;;;;;7.28;3.45;;;16.20;99.90;;;;;;5069957;28;20025;-69
2023/07/14 03:30:29;;;;;;;6.55;3.33;;;16.10;99.90;;;;;;5069818;28;20029;-69
2023/07/14 03:32:55;;;;;;;8.25;3.88;;;16.10;99.90;;;;;;5070772;28;20032;-69
2023/07/14 03:35:20;;;;;;;8.63;3.80;;;16.10;99.90;;;;;;5071016;28;20047;-69
2023/07/14 03:37:47;;;;;;;6.00;3.67;;;16.10;99.90;;;;;;5070855;28;20426;-69
2023/07/14 03:40:12;;;;;;;6.65;3.63;;;16.10;99.90;;;;;;5070697;28;20036;-69
2023/07/14 03:42:40;;;;;;;8.70;3.70;;;16.10;99.90;;;;;;5070684;28;20374;-70
2023/07/14 03:45:06;;;;;;;9.30;3.80;;;16.00;99.90;;;;;;5069330;28;20376;-70
2023/07/14 03:47:32;;;;;;;10.70;4.00;;;16.00;99.90;;;;;;5070869;28;20031;-69
2023/07/14 03:49:58;;;;;;;7.43;4.15;;;16.00;99.90;;;;;;5070722;28;20032;-70
2023/07/14 03:52:24;;;;;;;6.95;4.53;;;16.00;99.90;;;;;;5070535;28;20048;-70
2023/07/14 03:54:50;;;;;;;8.45;4.45;;;16.00;99.90;;;;;;5070666;28;20028;-70
2023/07/14 03:57:16;;;;;;;9.90;4.10;;;16.10;99.90;;;;;;5070603;28;20032;-69
2023/07/14 03:59:41;;;;;;;10.18;4.93;;;16.10;99.90;;;;;;5070418;28;20028;-69
2023/07/14 04:02:07;;;;;;;10.27;4.65;;;16.10;99.90;;;;;;5069697;28;20035;-69
2023/07/14 04:04:33;;;;;;;11.00;5.72;;;16.10;99.90;;;;;;5070711;28;20093;-69
2023/07/14 04:06:59;;;;;;;10.32;4.72;;;16.00;99.90;;;;;;5070529;28;20033;-68
2023/07/14 04:09:24;;;;;;;7.60;4.20;;;16.00;99.90;;;;;;5070335;28;20489;-69
2023/07/14 04:11:50;;;;;;;7.90;4.63;;;16.10;99.90;;;;;;5068962;28;20135;-69
2023/07/14 04:14:16;;;;;;;6.25;4.20;;;16.10;99.90;;;;;;5070783;28;20039;-69
2023/07/14 04:16:41;;;;;;;9.18;4.45;;;16.10;99.90;;;;;;5070346;28;20055;-69
2023/07/14 04:19:07;;;;;;;8.60;4.40;;;16.10;99.90;;;;;;5070302;28;20116;-68
2023/07/14 04:21:33;;;;;;;10.25;5.38;;;16.10;99.90;;;;;;5069293;28;20048;-68
2023/07/14 04:23:59;;;;;;;8.75;5.20;;;16.10;99.90;;;;;;5070474;28;20052;-69
2023/07/14 04:26:26;;;;;;;7.90;4.57;;;16.10;99.90;;;;;;5070554;28;20510;-69
2023/07/14 04:28:53;;;;;;;8.13;4.13;;;16.10;99.90;;;;;;5070261;28;20052;-68
2023/07/14 04:31:19;;;;;;;12.27;4.22;;;16.10;99.90;;;;;;5070443;28;20037;-69
2023/07/14 04:33:47;;;;;;;9.18;4.18;;;16.10;99.90;;;;;;5069811;28;20052;-69
2023/07/14 04:36:14;;;;;;;12.35;5.03;;;16.10;99.90;;;;;;5070275;28;20048;-68
2023/07/14 04:39:10;;;;;;;9.48;4.75;;;16.20;99.90;;;;;;5069951;28;20025;-68
2023/07/14 04:41:36;;;;;;;7.57;3.70;;;16.20;99.90;;;;;;5070059;28;20056;-68
2023/07/14 04:44:14;;;;;;;7.85;4.65;;;16.30;99.90;;;;;;5070706;28;20035;-69
2023/07/14 04:46:41;;;;;;;8.02;4.20;;;16.30;99.90;;;;;;5068938;28;20032;-68
2023/07/14 04:49:07;;;;;;;9.27;4.47;;;16.30;99.90;;;;;;5070136;28;20421;-67
2023/07/14 04:51:33;;;;;;;7.47;3.55;;;16.30;99.90;;;;;;5069779;28;20086;-68
2023/07/14 04:53:59;;;;;;;9.70;4.50;;;16.30;99.90;;;;;;5069778;28;20040;-68
2023/07/14 04:56:26;;;;;;;11.90;4.45;;;16.40;99.90;;;;;;5070432;28;20017;-69
2023/07/14 04:58:51;;;;;;;5.20;3.83;;;16.40;99.90;;;;;;5072346;28;20036;-69
2023/07/14 05:01:17;;;;;;;10.02;4.82;;;16.40;99.90;;;;;;5073855;28;20118;-70
2023/07/14 05:03:44;;;;;;;13.82;4.20;;;16.50;99.90;;;;;;5073925;28;20106;-69
2023/07/14 05:06:10;;;;;;;9.77;4.25;;;16.50;99.90;;;;;;5073806;28;20021;-69
2023/07/14 05:08:36;;;;;;;9.82;4.90;;;16.50;99.90;;;;;;5073804;28;20116;-69
2023/07/14 05:11:02;;;;;;;12.13;4.43;;;16.60;99.90;;;;;;5073982;28;20099;-69
2023/07/14 05:13:28;;;;;;;5.90;3.90;;;16.70;99.90;;;;;;5072482;28;20036;-69
2023/07/14 05:15:56;;;;;;;7.05;4.10;;;16.70;99.90;;;;;;5073676;28;20076;-69
2023/07/14 05:18:22;;;;;;;9.00;4.03;;;16.80;99.90;;;;;;5073481;28;20405;-69
2023/07/14 05:20:47;;;;;;;9.25;4.05;;;16.80;99.90;;;;;;5072395;28;20024;-69
2023/07/14 05:23:13;;;;;;;11.50;4.20;;;16.90;99.90;;;;;;5073637;28;20025;-69
2023/07/14 05:25:39;;;;;;;10.80;4.35;;;17.00;99.90;;;;;;5073465;28;20116;-68
2023/07/14 05:28:04;;;;;;;14.13;4.50;;;17.10;99.90;;;;;;5073384;28;20024;-68
2023/07/14 05:30:30;;;;;;;7.03;3.38;;;17.10;99.90;;;;;;5073704;28;20085;-69
2023/07/14 05:32:56;;;;;;;9.68;4.07;;;17.20;99.90;;;;;;5073170;28;20036;-68
2023/07/14 05:35:22;;;;;;;9.68;4.25;;;17.30;99.90;;;;;;5073322;28;20055;-69
2023/07/14 05:37:48;;;;;;;10.35;4.05;;;17.50;99.90;;;;;;5072073;28;20039;-68
2023/07/14 05:40:15;;;;;;;12.00;4.13;;;17.50;99.90;;;;;;5073332;28;20037;-69
2023/07/14 05:42:41;;;;;;;4.80;3.45;;;17.70;99.90;;;;;;5073197;28;20032;-71
2023/07/14 05:45:08;;;;;;;8.35;3.72;;;17.80;99.90;;;;;;5073225;28;20040;-68
2023/07/14 05:47:36;;;;;;;15.03;4.37;;;17.90;99.90;;;;;;5073015;28;20021;-68
2023/07/14 05:50:03;;;;;;;;;;;17.90;99.90;;;;;;5073606;28;20048;-69
2023/07/14 05:52:28;;;;;;;6.65;3.30;;;18.00;99.90;;;;;;5072621;28;19924;-68
2023/07/14 05:54:54;;;;;;;7.95;3.92;;;18.00;99.90;;;;;;5072800;28;20029;-68
2023/07/14 05:57:19;;;;;;;6.63;3.03;;;18.10;99.90;;;;;;5071725;28;20350;-71
2023/07/14 05:59:45;;;;;;;8.52;3.50;;;18.10;99.90;;;;;;5072906;28;20082;-68
2023/07/14 06:02:13;;;;;;;10.70;3.38;;;18.20;99.90;;;;;;5058119;28;20140;-70
2023/07/14 06:04:39;;;;;;;;;;;18.30;99.90;;;;;;5033302;28;20037;-70
2023/07/14 06:07:06;;;;;;;4.00;3.05;;;18.30;99.90;;;;;;5032706;28;19909;-68
2023/07/14 06:09:36;;;;;;;5.47;3.53;;;18.40;99.90;;;;;;5031848;28;20385;-69
2023/07/14 06:12:04;;;;;;;9.15;3.75;;;18.40;99.90;;;;;;5032481;28;20033;-69
2023/07/14 06:14:33;;;;;;;10.27;3.33;;;18.50;99.90;;;;;;5033025;28;20414;-70
2023/07/14 06:17:00;;;;;;;7.93;3.25;;;18.60;99.90;;;;;;5032714;28;20037;-70
2023/07/14 06:19:30;;;;;;;6.00;3.70;;;18.60;99.90;;;;;;5048010;28;20088;-69
2023/07/14 06:21:56;;;;;;;8.52;3.58;;;18.70;99.90;;;;;;5032409;28;20237;-69
2023/07/14 06:24:23;;;;;;;9.30;3.50;;;18.80;99.90;;;;;;5064325;28;20029;-69
2023/07/14 06:26:49;;;;;;;9.18;3.58;;;18.90;99.90;;;;;;5032358;28;20021;-70
2023/07/14 06:29:15;;;;;;;6.15;3.25;;;19.00;99.90;;;;;;5032654;28;20029;-68
2023/07/14 06:31:40;;;;;;;7.72;3.03;;;19.00;99.90;;;;;;5032031;28;20091;-68
2023/07/14 06:34:06;;;;;;;7.63;2.92;;;19.00;99.90;;;;;;5032078;28;20490;-68
2023/07/14 06:36:32;;;;;;;6.38;3.15;;;19.10;99.90;;;;;;5047438;28;20037;-67
2023/07/14 06:38:58;;;;;;;7.10;3.05;;;19.30;99.90;;;;;;5032076;28;20108;-68
2023/07/14 06:41:24;;;;;;;5.80;3.15;;;19.30;99.90;;;;;;5032491;28;20083;-68
2023/07/14 06:43:50;;;;;;;6.05;3.13;;;19.40;99.90;;;;;;5031863;28;20026;-69
2023/07/14 06:46:17;;;;;;;9.13;3.30;;;19.50;99.90;;;;;;5032407;28;20041;-72
2023/07/14 06:48:45;;;;;;;10.95;3.85;;;19.60;99.90;;;;;;5046968;28;20513;-70
2023/07/14 06:51:12;;;;;;;;;;;19.60;99.90;;;;;;5032258;28;20049;-71
2023/07/14 06:53:38;;;;;;;7.90;4.00;;;19.60;99.90;;;;;;5030593;28;19909;-71
2023/07/14 06:56:04;;;;;;;6.40;3.10;;;19.70;99.90;;;;;;5030815;28;20159;-72
2023/07/14 06:58:29;;;;;;;8.75;3.22;;;19.60;99.90;;;;;;5051887;28;20046;-72
2023/07/14 07:00:55;;;;;;;8.18;3.00;;;19.70;99.90;;;;;;5051257;28;20411;-73
2023/07/14 07:03:21;;;;;;;9.85;3.88;;;19.70;99.70;;;;;;5052442;28;20035;-73
2023/07/14 07:05:46;;;;;;;6.18;3.30;;;19.90;99.80;;;;;;5052437;28;20025;-73
2023/07/14 07:08:14;;;;;;;8.00;3.33;;;20.00;99.50;;;;;;5052722;28;20489;-75
2023/07/14 07:10:41;;;;;;;;;;;20.20;99.40;;;;;;5051763;28;20025;-76
2023/07/14 07:13:07;;;;;;;7.25;3.65;;;20.30;99.40;;;;;;5052247;28;20347;-74
2023/07/14 07:15:32;;;;;;;6.85;3.55;;;20.30;98.40;;;;;;5052403;28;20033;-71
2023/07/14 07:17:58;;;;;;;10.68;4.88;;;20.30;98.20;;;;;;5052319;28;20090;-70
2023/07/14 07:20:24;;;;;;;7.40;4.00;;;20.40;97.90;;;;;;5051975;28;20037;-70
2023/07/14 07:22:49;;;;;;;7.75;3.70;;;20.50;97.80;;;;;;5051961;28;20349;-70
2023/07/14 07:25:16;;;;;;;4.63;3.03;;;20.60;98.00;;;;;;5052137;28;20025;-70
2023/07/14 07:27:42;;;;;;;4.25;2.92;;;20.60;97.70;;;;;;5051838;28;20121;-74
2023/07/14 07:30:09;;;;;;;8.13;3.97;;;20.60;96.90;;;;;;5051849;28;20108;-71
2023/07/14 07:32:35;;;;;;;11.20;3.22;;;20.60;96.90;;;;;;5051878;28;20056;-74
2023/07/14 07:35:01;;;;;;;6.30;3.03;;;20.70;97.50;;;;;;5052173;28;20428;-72
2023/07/14 07:37:28;;;;;;;6.07;2.70;;;20.80;97.50;;;;;;5050719;28;20551;-73
2023/07/14 07:39:55;;;;;;;7.07;3.35;;;20.80;96.70;;;;;;5052060;28;20098;-76
2023/07/14 07:42:22;;;;;;;8.55;2.95;;;20.90;96.50;;;;;;5051562;28;20025;-75
2023/07/14 07:44:48;;;;;;;11.20;3.45;;;21.00;96.60;;;;;;5051772;28;20025;-73
2023/07/14 07:47:14;;;;;;;9.02;4.18;;;21.20;96.50;;;;;;5052009;28;20100;-73
2023/07/14 07:49:39;;;;;;;9.55;3.45;;;21.20;96.20;;;;;;5051635;28;20375;-74
2023/07/14 07:52:06;;;;;;;10.90;3.65;;;21.30;96.20;;;;;;5050294;28;20032;-74
2023/07/14 07:54:32;;;;;;;8.30;2.90;;;21.50;95.70;;;;;;5050388;28;20040;-72
2023/07/14 07:56:57;;;;;;;7.80;3.47;;;21.80;95.50;;;;;;5051129;28;20363;-74
2023/07/14 07:59:23;;;;;;;6.65;2.85;;;22.00;95.10;;;;;;5051089;28;20475;-77
2023/07/14 08:01:49;;;;;;;7.15;3.28;;;22.10;94.90;;;;;;5051453;28;20175;-67
2023/07/14 08:04:16;;;;;;;9.93;3.30;;;22.20;94.50;;;;;;5051299;28;20048;-69
2023/07/14 08:06:43;;;;;;;6.57;3.22;;;22.40;94.10;;;;;;5051260;28;20067;-70
2023/07/14 08:09:09;;;;;;;5.82;3.40;;;22.50;94.50;;;;;;5051312;28;20055;-69
2023/07/14 08:11:35;;;;;;;8.45;3.00;;;22.70;95.10;;;;;;5050811;28;20021;-71
2023/07/14 08:14:02;;;;;;;7.47;2.63;;;22.80;94.30;;;;;;5051944;28;20107;-69
2023/07/14 08:16:29;;;;;;;9.20;2.93;;;22.90;94.20;;;;;;5051134;28;20025;-69
2023/07/14 08:18:54;;;;;;;7.38;3.10;;;23.00;94.10;;;;;;5050967;28;20047;-70
2023/07/14 08:21:20;;;;;;;7.93;3.13;;;23.00;93.40;;;;;;5050659;28;20024;-70
2023/07/14 08:23:46;;;;;;;6.25;2.72;;;23.10;93.40;;;;;;5049635;28;20083;-70
2023/07/14 08:26:12;;;;;;;5.10;2.30;;;23.20;93.60;;;;;;5049583;28;20021;-71
2023/07/14 08:28:38;;;;;;;8.52;2.63;;;23.40;93.20;;;;;;5049019;28;20415;-70
2023/07/14 08:31:07;;;;;;;6.35;2.22;;;23.40;93.00;;;;;;5048877;28;20033;-73
2023/07/14 08:33:33;;;;;;;4.75;2.47;;;23.60;92.90;;;;;;5049439;28;20116;-71
2023/07/14 08:36:00;;;;;;;6.03;2.35;;;23.80;92.60;;;;;;5050823;28;20090;-71
2023/07/14 08:38:27;;;;;;;7.82;3.88;;;24.60;93.00;;;;;;5050327;28;20091;-70
2023/07/14 08:41:03;;;;;;;5.47;2.17;;;25.20;93.00;;;;;;5048818;28;20116;-70
2023/07/14 08:44:08;;;;;;;2.75;1.80;;;25.90;91.10;;;;;;5050001;28;20049;-69
2023/07/14 08:47:04;;;;;;;6.15;1.80;;;26.90;89.30;;;;;;5050009;28;20044;-69
2023/07/14 08:49:48;;;;;;;11.27;2.10;;;28.00;88.50;;;;;;5049957;28;20490;-69
2023/07/14 08:52:28;;;;;;;3.03;2.00;;;28.20;85.30;;;;;;5050020;28;20032;-68
2023/07/14 08:55:06;;;;;;;7.13;4.38;;;29.00;82.40;;;;;;5049674;28;20112;-69
2023/07/14 08:57:42;;;;;;;9.90;6.32;;;29.60;77.60;;;;;;5049583;28;20253;-70
2023/07/14 09:00:14;;;;;;;5.10;2.25;;;29.80;78.60;;;;;;5049773;28;20039;-71
2023/07/14 09:02:55;;;;;;;7.40;2.30;;;30.10;76.80;;;;;;5048596;28;20283;-71
2023/07/14 09:05:27;;;;;;;4.00;2.00;;;30.50;76.40;;;;;;5050353;28;20375;-70
2023/07/14 09:07:53;;;;;;;6.18;1.85;;;30.90;73.40;;;;;;5049771;28;20382;-72
2023/07/14 09:10:29;;;;;;;3.33;1.85;;;31.00;72.10;;;;;;5049685;28;20048;-72
2023/07/14 09:13:17;;;;;;;3.88;1.90;;;31.40;69.70;;;;;;5048305;28;20055;-70
2023/07/14 09:15:43;;;;;;;4.55;1.70;;;31.50;70.50;;;;;;5049633;28;20102;-73
2023/07/14 09:18:37;;;;;;;3.65;1.92;;;31.60;68.60;;;;;;5046475;28;20041;-73
2023/07/14 09:21:14;;;;;;;4.80;1.98;;;31.90;61.80;;;;;;5050407;28;20040;-70
2023/07/14 09:23:51;;;;;;;3.53;1.60;;;32.10;65.00;;;;;;5050464;28;20112;-72
2023/07/14 09:26:33;;;;;;;2.60;1.83;;;32.30;66.90;;;;;;5051071;28;20036;-69
2023/07/14 09:29:07;;;;;;;2.55;1.23;;;31.80;62.60;;;;;;5050603;28;20120;-71
2023/07/14 09:32:04;;;;;;;4.40;1.67;;;32.00;65.10;;;;;;5048915;28;20064;-70
2023/07/14 09:34:38;;;;;;;3.47;1.70;;;31.90;59.50;;;;;;5050122;28;20502;-72
2023/07/14 09:37:17;;;;;;;8.65;5.03;;;31.30;62.00;;;;;;5050276;28;20083;-72
2023/07/14 09:39:46;;;;;;;4.45;1.77;;;31.40;61.80;;;;;;5050283;28;20033;-71
2023/07/14 09:42:25;;;;;;;5.63;2.35;;;31.10;61.50;;;;;;5050361;28;20029;-70
2023/07/14 09:44:57;;;;;;;7.15;1.90;;;30.20;61.70;;;;;;5052387;28;20397;-69
2023/07/14 09:47:23;;;;;;;4.28;2.40;;;29.90;63.90;;;;;;5054268;28;20112;-70
2023/07/14 09:49:57;;;;;;;2.80;1.70;;;29.90;63.00;;;;;;5054116;28;20029;-71
2023/07/14 09:52:25;;;;;;;4.22;1.95;;;29.60;62.80;;;;;;5052659;28;20037;-69
2023/07/14 09:54:57;;;;;;;3.28;1.80;;;29.20;64.80;;;;;;5052777;28;20035;-70
2023/07/14 09:57:30;;;;;;;3.72;1.80;;;29.10;63.10;;;;;;5053988;28;20036;-69
2023/07/14 09:59:59;;;;;;;6.03;2.10;;;29.00;63.80;;;;;;5053675;28;20036;-70
2023/07/14 10:02:30;;;;;;;3.42;1.73;;;28.80;63.60;;;;;;5052566;28;20053;-70
2023/07/14 10:05:22;;;;;;;3.58;1.80;;;28.60;64.60;;;;;;5052581;28;20040;-69
2023/07/14 10:07:47;;;;;;;5.63;2.00;;;28.50;64.60;;;;;;5053536;28;20025;-72
2023/07/14 10:10:15;;;;;;;4.30;2.10;;;28.50;65.10;;;;;;5053540;28;20119;-69
2023/07/14 10:12:48;;;;;;;4.40;2.15;;;28.50;64.90;;;;;;5052954;28;20045;-73
2023/07/14 10:15:35;;;;;;;4.22;2.42;;;28.30;65.40;;;;;;5052441;28;20044;-72
2023/07/14 10:18:12;;;;;;;7.05;2.70;;;28.00;65.90;;;;;;5052447;28;20044;-73
2023/07/14 10:20:39;;;;;;;5.27;2.23;;;28.10;66.80;;;;;;5052956;28;20032;-72
2023/07/14 10:23:16;;;;;;;8.75;1.90;;;27.90;66.60;;;;;;5052486;28;20021;-72
2023/07/14 10:25:49;;;;;;;2.40;1.92;;;28.00;67.00;;;;;;5052438;28;20465;-72
2023/07/14 10:28:22;;;;;;;3.75;1.85;;;27.90;67.40;;;;;;5052232;28;20033;-71
2023/07/14 10:31:08;;;;;;;5.22;2.10;;;27.90;66.70;;;;;;5052368;28;20032;-70
2023/07/14 10:33:59;;;;;;;10.43;5.57;;;27.80;66.50;;;;;;5051850;28;20053;-69
2023/07/14 10:36:34;;;;;;;8.88;3.40;;;27.80;67.30;;;;;;5052197;28;20116;-69
2023/07/14 10:39:11;;;;;;;6.70;4.20;;;27.90;67.50;;;;;;5052000;28;20098;-69
2023/07/14 10:41:39;;;;;;;5.93;2.08;;;27.90;68.50;;;;;;5050856;28;20040;-69
2023/07/14 10:44:37;;;;;;;4.20;1.80;;;27.90;68.50;;;;;;5052726;28;20094;-70
2023/07/14 10:47:12;;;;;;;4.20;2.08;;;28.00;68.60;;;;;;5046236;28;20033;-71
2023/07/14 10:49:49;;;;;;;3.35;1.75;;;27.80;67.70;;;;;;5051853;28;20033;-70
2023/07/14 10:52:23;;;;;;;5.32;3.67;;;27.50;68.00;;;;;;5051788;28;20032;-71
2023/07/14 10:54:55;;;;;;;5.32;2.03;;;27.60;68.00;;;;;;5050596;28;20088;-70
2023/07/14 10:57:49;;;;;;;5.22;2.53;;;27.60;67.80;;;;;;5051886;28;20113;-69
2023/07/14 11:00:36;;;;;;;6.25;3.25;;;27.50;67.80;;;;;;5051746;28;20029;-71
2023/07/14 11:03:11;;;;;;;;;;;27.30;67.50;;;;;;5052013;28;20037;-70
2023/07/14 11:05:38;;;;;;;10.55;2.28;;;27.10;67.00;;;;;;5051430;28;19908;-70
2023/07/14 11:08:08;;;;;;;3.65;1.70;;;26.80;67.80;;;;;;5050774;28;20051;-69
2023/07/14 11:10:41;;;;;;;5.10;2.00;;;26.80;68.00;;;;;;5051340;28;20436;-71
2023/07/14 11:13:28;;;;;;;4.10;1.83;;;26.70;68.10;;;;;;5051359;28;20745;-70
2023/07/14 11:16:06;;;;;;;4.50;1.95;;;26.80;69.30;;;;;;5051278;28;20036;-70
2023/07/14 11:18:43;;;;;;;5.03;2.33;;;26.70;68.40;;;;;;5051412;28;20033;-71
2023/07/14 11:21:17;;;;;;;3.85;1.60;;;26.70;68.80;;;;;;5050170;28;20056;-73
2023/07/14 11:24:06;;;;;;;6.95;2.10;;;26.70;69.50;;;;;;5052237;28;20052;-73
2023/07/14 11:26:40;;;;;;;4.97;2.90;;;26.80;67.40;;;;;;5052460;28;20546;-70
2023/07/14 11:29:18;;;;;;;16.40;10.93;;;26.80;67.40;;;;;;5052475;28;20091;-70
2023/07/14 11:31:51;;;;;;;13.70;8.25;;;27.00;68.50;;;;;;5052273;28;20428;-70
2023/07/14 11:34:39;;;;;;;7.50;2.08;;;27.10;67.50;;;;;;5051349;28;20479;-72
2023/07/14 11:37:29;;;;;;;3.22;1.77;;;27.20;68.30;;;;;;5052140;28;20037;-71
2023/07/14 11:40:00;;;;;;;4.68;2.15;;;27.30;68.00;;;;;;5050927;28;20025;-72
2023/07/14 11:42:35;;;;;;;7.03;2.00;;;27.30;69.20;;;;;;5052034;28;20036;-71
2023/07/14 11:45:05;;;;;;;2.70;1.80;;;27.30;69.10;;;;;;5050838;28;20035;-70
2023/07/14 11:47:41;;;;;;;3.63;1.80;;;27.10;68.50;;;;;;5052488;28;20021;-69
2023/07/14 11:50:16;;;;;;;4.53;2.72;;;27.10;68.30;;;;;;5051585;28;20037;-69
2023/07/14 11:53:05;;;;;;;6.80;2.40;;;27.10;68.10;;;;;;5051680;28;20053;-70
2023/07/14 11:55:33;;;;;;;4.82;1.88;;;27.10;67.50;;;;;;5051601;28;20051;-70
2023/07/14 11:58:11;;;;;;;10.27;2.05;;;27.10;68.30;;;;;;5051670;28;20474;-69
2023/07/14 12:00:51;;;;;;;3.45;2.20;;;27.10;68.70;;;;;;5050561;28;20029;-70
2023/07/14 12:03:36;;;;;;;2.63;1.80;;;27.10;67.80;;;;;;5050286;28;20041;-69
2023/07/14 12:06:19;;;;;;;5.57;2.53;;;27.10;69.00;;;;;;5051337;28;20477;-69
2023/07/14 12:09:12;;;;;;;5.63;2.92;;;27.10;67.70;;;;;;5051480;28;20104;-69
2023/07/14 12:11:37;;;;;;;5.22;2.15;;;27.10;68.20;;;;;;5051209;28;20024;-69
2023/07/14 12:14:35;;;;;;;3.72;2.05;;;27.00;68.20;;;;;;5051719;28;20075;-68
2023/07/14 12:17:02;;;;;;;9.82;5.97;;;27.00;68.10;;;;;;5051670;28;20029;-70
2023/07/14 12:19:32;;;;;;;;;;;26.90;67.30;;;;;;5051353;28;20025;-69
2023/07/14 12:22:09;;;;;;;9.07;6.32;;;27.00;67.40;;;;;;5051116;28;19916;-70
2023/07/14 12:24:40;;;;;;;;;;;26.90;67.00;;;;;;5051554;28;20473;-68
2023/07/14 12:27:17;;;;;;;5.45;2.40;;;26.80;67.40;;;;;;5050973;28;19908;-70
2023/07/14 12:29:43;;;;;;;3.33;2.00;;;26.70;67.90;;;;;;5051014;28;20117;-68
2023/07/14 12:32:19;;;;;;;2.90;2.20;;;26.60;68.30;;;;;;5051333;28;20040;-69
2023/07/14 12:34:46;;;;;;;4.07;2.17;;;26.40;68.50;;;;;;5050028;28;20382;-70
2023/07/14 12:37:18;;;;;;;5.07;2.17;;;26.40;68.00;;;;;;5049912;28;20037;-69
2023/07/14 12:39:50;;;;;;;6.20;2.22;;;26.40;66.90;;;;;;5049872;28;20056;-70
2023/07/14 12:42:16;;;;;;;2.60;2.03;;;26.50;66.90;;;;;;5049983;28;20071;-71
2023/07/14 12:44:42;;;;;;;3.67;2.00;;;26.70;66.20;;;;;;5049632;28;20033;-68
2023/07/14 12:47:27;;;;;;;5.07;2.67;;;26.70;64.90;;;;;;5048955;28;20031;-70
2023/07/14 12:49:53;;;;;;;4.20;1.98;;;26.70;65.10;;;;;;5048704;28;20116;-69
2023/07/14 12:52:34;;;;;;;5.05;2.30;;;26.70;64.40;;;;;;5049726;28;20033;-70
2023/07/14 12:55:02;;;;;;;4.05;2.25;;;26.70;65.70;;;;;;5049808;28;20029;-68
2023/07/14 12:57:32;;;;;;;3.70;1.80;;;26.70;65.50;;;;;;5048837;28;20037;-69
2023/07/14 12:59:57;;;;;;;6.75;1.83;;;26.70;64.80;;;;;;5048643;28;20111;-67
2023/07/14 13:02:24;;;;;;;2.65;2.13;;;26.70;64.60;;;;;;5050426;28;20021;-68
2023/07/14 13:04:51;;;;;;;7.80;2.50;;;26.70;64.20;;;;;;5050087;28;20033;-70
2023/07/14 13:07:29;;;;;;;4.18;2.22;;;26.70;64.20;;;;;;5049754;28;20041;-69